sensor_id;sensor_type;location;lat;lon;timestamp;temperature;humidity
63047;DHT22;62025;39.238;9.126;2022-10-16T00:01:52;22.30;70.30
63047;DHT22;62025;39.238;9.126;2022-10-16T00:04:17;22.20;70.20
63047;DHT22;62025;39.238;9.126;2022-10-16T00:06:43;22.30;69.80
63047;DHT22;62025;39.238;9.126;2022-10-16T00:09:09;22.00;70.70
63047;DHT22;62025;39.238;9.126;2022-10-16T00:11:36;22.10;70.50
63047;DHT22;62025;39.238;9.126;2022-10-16T00:14:04;22.00;70.80
63047;DHT22;62025;39.238;9.126;2022-10-16T00:16:33;22.10;70.30
63047;DHT22;62025;39.238;9.126;2022-10-16T00:18:59;22.10;70.20
63047;DHT22;62025;39.238;9.126;2022-10-16T00:21:26;22.10;70.10
63047;DHT22;62025;39.238;9.126;2022-10-16T00:23:58;22.00;70.50
63047;DHT22;62025;39.238;9.126;2022-10-16T00:26:30;22.00;70.60
63047;DHT22;62025;39.238;9.126;2022-10-16T00:28:57;22.00;70.40
63047;DHT22;62025;39.238;9.126;2022-10-16T00:31:23;21.90;70.70
63047;DHT22;62025;39.238;9.126;2022-10-16T00:33:49;21.90;71.10
63047;DHT22;62025;39.238;9.126;2022-10-16T00:36:17;21.90;71.10
63047;DHT22;62025;39.238;9.126;2022-10-16T00:38:44;21.90;70.90
63047;DHT22;62025;39.238;9.126;2022-10-16T00:41:12;21.90;70.70
63047;DHT22;62025;39.238;9.126;2022-10-16T00:46:33;21.80;71.00
63047;DHT22;62025;39.238;9.126;2022-10-16T00:49:10;21.90;70.70
63047;DHT22;62025;39.238;9.126;2022-10-16T00:51:43;21.90;70.80
63047;DHT22;62025;39.238;9.126;2022-10-16T00:54:12;22.00;70.40
63047;DHT22;62025;39.238;9.126;2022-10-16T00:56:40;21.90;70.50
63047;DHT22;62025;39.238;9.126;2022-10-16T00:59:08;21.90;70.70
63047;DHT22;62025;39.238;9.126;2022-10-16T01:01:38;21.80;71.00
63047;DHT22;62025;39.238;9.126;2022-10-16T01:04:04;21.90;71.00
63047;DHT22;62025;39.238;9.126;2022-10-16T01:15:21;21.90;70.40
63047;DHT22;62025;39.238;9.126;2022-10-16T01:17:46;21.90;70.60
63047;DHT22;62025;39.238;9.126;2022-10-16T01:25:48;21.80;70.90
63047;DHT22;62025;39.238;9.126;2022-10-16T01:28:32;21.80;71.00
63047;DHT22;62025;39.238;9.126;2022-10-16T01:31:01;21.60;71.20
63047;DHT22;62025;39.238;9.126;2022-10-16T01:33:42;21.80;71.10
63047;DHT22;62025;39.238;9.126;2022-10-16T01:36:15;21.70;71.00
63047;DHT22;62025;39.238;9.126;2022-10-16T01:38:44;21.70;71.20
63047;DHT22;62025;39.238;9.126;2022-10-16T01:41:32;21.70;71.30
63047;DHT22;62025;39.238;9.126;2022-10-16T01:46:29;21.60;71.40
63047;DHT22;62025;39.238;9.126;2022-10-16T01:48:56;21.70;71.20
63047;DHT22;62025;39.238;9.126;2022-10-16T01:51:23;21.70;71.10
63047;DHT22;62025;39.238;9.126;2022-10-16T01:53:51;21.70;70.80
63047;DHT22;62025;39.238;9.126;2022-10-16T01:56:19;21.70;70.70
63047;DHT22;62025;39.238;9.126;2022-10-16T01:58:49;21.60;70.90
63047;DHT22;62025;39.238;9.126;2022-10-16T02:01:19;21.60;70.90
63047;DHT22;62025;39.238;9.126;2022-10-16T02:03:48;21.50;71.40
63047;DHT22;62025;39.238;9.126;2022-10-16T02:06:17;21.50;71.30
63047;DHT22;62025;39.238;9.126;2022-10-16T02:08:43;21.50;71.10
63047;DHT22;62025;39.238;9.126;2022-10-16T02:11:09;21.40;71.10
63047;DHT22;62025;39.238;9.126;2022-10-16T02:13:46;21.50;71.10
63047;DHT22;62025;39.238;9.126;2022-10-16T02:16:14;21.50;70.90
63047;DHT22;62025;39.238;9.126;2022-10-16T02:18:41;21.40;71.10
63047;DHT22;62025;39.238;9.126;2022-10-16T02:21:25;21.40;71.40
63047;DHT22;62025;39.238;9.126;2022-10-16T02:23:57;21.40;71.30
63047;DHT22;62025;39.238;9.126;2022-10-16T02:26:34;21.40;70.90
63047;DHT22;62025;39.238;9.126;2022-10-16T02:29:10;21.30;71.30
63047;DHT22;62025;39.238;9.126;2022-10-16T02:31:38;21.40;71.00
63047;DHT22;62025;39.238;9.126;2022-10-16T02:34:07;21.40;70.70
63047;DHT22;62025;39.238;9.126;2022-10-16T02:36:34;21.30;71.10
63047;DHT22;62025;39.238;9.126;2022-10-16T02:39:01;21.40;70.80
63047;DHT22;62025;39.238;9.126;2022-10-16T02:41:29;21.40;70.70
63047;DHT22;62025;39.238;9.126;2022-10-16T02:43:55;21.40;70.90
63047;DHT22;62025;39.238;9.126;2022-10-16T02:46:21;21.30;71.20
63047;DHT22;62025;39.238;9.126;2022-10-16T02:48:47;21.30;71.40
63047;DHT22;62025;39.238;9.126;2022-10-16T02:51:13;21.30;71.20
63047;DHT22;62025;39.238;9.126;2022-10-16T02:53:39;21.30;71.30
63047;DHT22;62025;39.238;9.126;2022-10-16T02:56:05;21.30;71.20
63047;DHT22;62025;39.238;9.126;2022-10-16T02:58:31;21.30;71.30
63047;DHT22;62025;39.238;9.126;2022-10-16T03:00:57;21.20;71.50
63047;DHT22;62025;39.238;9.126;2022-10-16T03:03:23;21.30;71.20
63047;DHT22;62025;39.238;9.126;2022-10-16T03:05:48;21.30;71.30
63047;DHT22;62025;39.238;9.126;2022-10-16T03:08:15;21.30;71.60
63047;DHT22;62025;39.238;9.126;2022-10-16T03:10:41;21.20;71.80
63047;DHT22;62025;39.238;9.126;2022-10-16T03:13:07;21.20;71.80
63047;DHT22;62025;39.238;9.126;2022-10-16T03:15:33;21.10;72.10
63047;DHT22;62025;39.238;9.126;2022-10-16T03:17:59;21.10;72.00
63047;DHT22;62025;39.238;9.126;2022-10-16T03:20:25;21.20;71.90
63047;DHT22;62025;39.238;9.126;2022-10-16T03:22:52;21.20;71.90
63047;DHT22;62025;39.238;9.126;2022-10-16T03:25:18;21.10;72.10
63047;DHT22;62025;39.238;9.126;2022-10-16T03:27:44;21.10;72.20
63047;DHT22;62025;39.238;9.126;2022-10-16T03:30:09;21.10;71.90
63047;DHT22;62025;39.238;9.126;2022-10-16T03:32:36;21.10;71.80
63047;DHT22;62025;39.238;9.126;2022-10-16T03:35:01;21.00;72.00
63047;DHT22;62025;39.238;9.126;2022-10-16T03:37:27;21.10;71.70
63047;DHT22;62025;39.238;9.126;2022-10-16T03:39:53;21.20;71.20
63047;DHT22;62025;39.238;9.126;2022-10-16T03:42:19;21.10;71.30
63047;DHT22;62025;39.238;9.126;2022-10-16T03:44:45;21.00;71.60
63047;DHT22;62025;39.238;9.126;2022-10-16T03:47:11;21.00;71.50
63047;DHT22;62025;39.238;9.126;2022-10-16T03:49:37;20.90;71.60
63047;DHT22;62025;39.238;9.126;2022-10-16T03:52:03;20.90;71.50
63047;DHT22;62025;39.238;9.126;2022-10-16T03:54:29;20.90;71.40
63047;DHT22;62025;39.238;9.126;2022-10-16T03:56:55;20.90;71.40
63047;DHT22;62025;39.238;9.126;2022-10-16T03:59:21;20.90;71.30
63047;DHT22;62025;39.238;9.126;2022-10-16T04:01:47;20.90;71.20
63047;DHT22;62025;39.238;9.126;2022-10-16T04:04:12;20.90;71.20
63047;DHT22;62025;39.238;9.126;2022-10-16T04:06:38;20.90;71.20
63047;DHT22;62025;39.238;9.126;2022-10-16T04:09:04;20.90;71.20
63047;DHT22;62025;39.238;9.126;2022-10-16T04:11:30;20.90;71.40
63047;DHT22;62025;39.238;9.126;2022-10-16T04:13:56;20.90;71.30
63047;DHT22;62025;39.238;9.126;2022-10-16T04:16:22;20.90;71.30
63047;DHT22;62025;39.238;9.126;2022-10-16T04:18:48;20.90;70.40
63047;DHT22;62025;39.238;9.126;2022-10-16T04:21:14;20.90;69.20
63047;DHT22;62025;39.238;9.126;2022-10-16T04:23:39;20.90;68.70
63047;DHT22;62025;39.238;9.126;2022-10-16T04:26:05;20.90;68.70
63047;DHT22;62025;39.238;9.126;2022-10-16T04:28:31;20.90;68.70
63047;DHT22;62025;39.238;9.126;2022-10-16T04:30:57;20.90;69.90
63047;DHT22;62025;39.238;9.126;2022-10-16T04:33:23;20.80;70.60
63047;DHT22;62025;39.238;9.126;2022-10-16T04:35:55;20.80;70.90
63047;DHT22;62025;39.238;9.126;2022-10-16T04:38:21;20.80;71.10
63047;DHT22;62025;39.238;9.126;2022-10-16T04:40:47;20.90;71.20
63047;DHT22;62025;39.238;9.126;2022-10-16T04:43:13;20.80;71.40
63047;DHT22;62025;39.238;9.126;2022-10-16T04:45:39;20.80;71.60
63047;DHT22;62025;39.238;9.126;2022-10-16T04:48:05;20.80;71.60
63047;DHT22;62025;39.238;9.126;2022-10-16T04:50:31;20.80;71.50
63047;DHT22;62025;39.238;9.126;2022-10-16T04:53:04;20.70;71.60
63047;DHT22;62025;39.238;9.126;2022-10-16T04:55:30;20.80;71.50
63047;DHT22;62025;39.238;9.126;2022-10-16T04:57:56;20.80;71.40
63047;DHT22;62025;39.238;9.126;2022-10-16T05:00:22;20.70;71.50
63047;DHT22;62025;39.238;9.126;2022-10-16T05:02:51;20.70;71.40
63047;DHT22;62025;39.238;9.126;2022-10-16T05:05:17;20.80;71.00
63047;DHT22;62025;39.238;9.126;2022-10-16T05:07:45;20.80;70.90
63047;DHT22;62025;39.238;9.126;2022-10-16T05:10:11;20.80;70.90
63047;DHT22;62025;39.238;9.126;2022-10-16T05:12:37;20.90;70.50
63047;DHT22;62025;39.238;9.126;2022-10-16T05:15:03;20.90;70.60
63047;DHT22;62025;39.238;9.126;2022-10-16T05:17:30;20.90;70.70
63047;DHT22;62025;39.238;9.126;2022-10-16T05:19:56;20.80;71.10
63047;DHT22;62025;39.238;9.126;2022-10-16T05:22:22;20.70;71.10
63047;DHT22;62025;39.238;9.126;2022-10-16T05:24:47;20.70;71.30
63047;DHT22;62025;39.238;9.126;2022-10-16T05:27:13;20.70;71.20
63047;DHT22;62025;39.238;9.126;2022-10-16T05:29:45;20.70;71.30
63047;DHT22;62025;39.238;9.126;2022-10-16T05:32:12;20.60;71.40
63047;DHT22;62025;39.238;9.126;2022-10-16T05:34:39;20.60;71.30
63047;DHT22;62025;39.238;9.126;2022-10-16T05:37:05;20.70;71.20
63047;DHT22;62025;39.238;9.126;2022-10-16T05:39:30;20.80;70.90
63047;DHT22;62025;39.238;9.126;2022-10-16T05:41:56;20.60;71.10
63047;DHT22;62025;39.238;9.126;2022-10-16T05:44:22;20.60;71.20
63047;DHT22;62025;39.238;9.126;2022-10-16T05:46:48;20.70;71.20
63047;DHT22;62025;39.238;9.126;2022-10-16T05:49:14;20.60;71.60
63047;DHT22;62025;39.238;9.126;2022-10-16T05:51:40;20.80;71.10
63047;DHT22;62025;39.238;9.126;2022-10-16T05:54:06;20.80;71.20
63047;DHT22;62025;39.238;9.126;2022-10-16T05:56:33;20.80;71.00
63047;DHT22;62025;39.238;9.126;2022-10-16T05:58:58;20.90;70.90
63047;DHT22;62025;39.238;9.126;2022-10-16T06:01:24;20.90;70.90
63047;DHT22;62025;39.238;9.126;2022-10-16T06:03:51;20.80;71.50
63047;DHT22;62025;39.238;9.126;2022-10-16T06:06:18;20.80;71.20
63047;DHT22;62025;39.238;9.126;2022-10-16T06:08:46;20.90;71.30
63047;DHT22;62025;39.238;9.126;2022-10-16T06:11:14;21.00;71.00
63047;DHT22;62025;39.238;9.126;2022-10-16T06:13:44;21.10;70.70
63047;DHT22;62025;39.238;9.126;2022-10-16T06:16:11;21.10;70.70
63047;DHT22;62025;39.238;9.126;2022-10-16T06:18:38;21.30;69.80
63047;DHT22;62025;39.238;9.126;2022-10-16T06:21:11;21.40;69.60
63047;DHT22;62025;39.238;9.126;2022-10-16T06:23:40;21.50;69.40
63047;DHT22;62025;39.238;9.126;2022-10-16T06:26:06;21.60;69.20
63047;DHT22;62025;39.238;9.126;2022-10-16T06:28:33;21.70;68.90
63047;DHT22;62025;39.238;9.126;2022-10-16T06:31:00;21.60;68.80
63047;DHT22;62025;39.238;9.126;2022-10-16T06:33:26;21.40;69.30
63047;DHT22;62025;39.238;9.126;2022-10-16T06:35:52;21.30;69.50
63047;DHT22;62025;39.238;9.126;2022-10-16T06:38:18;21.40;69.40
63047;DHT22;62025;39.238;9.126;2022-10-16T06:40:44;21.70;68.70
63047;DHT22;62025;39.238;9.126;2022-10-16T06:43:10;21.90;68.10
63047;DHT22;62025;39.238;9.126;2022-10-16T06:45:36;22.00;67.40
63047;DHT22;62025;39.238;9.126;2022-10-16T06:48:01;22.10;67.40
63047;DHT22;62025;39.238;9.126;2022-10-16T06:50:27;22.20;67.10
63047;DHT22;62025;39.238;9.126;2022-10-16T06:52:53;22.30;66.50
63047;DHT22;62025;39.238;9.126;2022-10-16T06:55:19;22.40;66.50
63047;DHT22;62025;39.238;9.126;2022-10-16T06:57:46;22.10;66.40
63047;DHT22;62025;39.238;9.126;2022-10-16T07:00:12;21.90;67.00
63047;DHT22;62025;39.238;9.126;2022-10-16T07:02:38;21.90;67.30
63047;DHT22;62025;39.238;9.126;2022-10-16T07:05:04;21.90;67.40
63047;DHT22;62025;39.238;9.126;2022-10-16T07:07:30;22.20;66.90
63047;DHT22;62025;39.238;9.126;2022-10-16T07:09:56;22.50;66.30
63047;DHT22;62025;39.238;9.126;2022-10-16T07:12:22;22.80;65.50
63047;DHT22;62025;39.238;9.126;2022-10-16T07:14:48;23.10;65.10
63047;DHT22;62025;39.238;9.126;2022-10-16T07:17:16;23.30;64.80
63047;DHT22;62025;39.238;9.126;2022-10-16T07:19:42;23.50;64.10
63047;DHT22;62025;39.238;9.126;2022-10-16T07:22:08;23.60;64.20
63047;DHT22;62025;39.238;9.126;2022-10-16T07:24:33;23.30;64.70
63047;DHT22;62025;39.238;9.126;2022-10-16T07:26:59;23.30;66.00
63047;DHT22;62025;39.238;9.126;2022-10-16T07:29:25;23.20;66.20
63047;DHT22;62025;39.238;9.126;2022-10-16T07:31:51;23.30;66.30
63047;DHT22;62025;39.238;9.126;2022-10-16T07:34:17;23.50;65.60
63047;DHT22;62025;39.238;9.126;2022-10-16T07:36:44;23.80;65.10
63047;DHT22;62025;39.238;9.126;2022-10-16T07:39:13;24.10;64.30
63047;DHT22;62025;39.238;9.126;2022-10-16T07:41:39;24.40;63.80
63047;DHT22;62025;39.238;9.126;2022-10-16T07:44:05;25.00;62.30
63047;DHT22;62025;39.238;9.126;2022-10-16T07:46:32;24.80;62.90
63047;DHT22;62025;39.238;9.126;2022-10-16T07:48:59;24.70;63.30
63047;DHT22;62025;39.238;9.126;2022-10-16T07:51:25;24.70;63.60
63047;DHT22;62025;39.238;9.126;2022-10-16T07:53:52;24.90;64.10
63047;DHT22;62025;39.238;9.126;2022-10-16T07:56:18;25.00;63.10
63047;DHT22;62025;39.238;9.126;2022-10-16T07:58:45;24.90;63.40
63047;DHT22;62025;39.238;9.126;2022-10-16T08:01:12;25.30;63.00
63047;DHT22;62025;39.238;9.126;2022-10-16T08:03:43;25.60;62.50
63047;DHT22;62025;39.238;9.126;2022-10-16T08:06:09;25.40;63.10
63047;DHT22;62025;39.238;9.126;2022-10-16T08:08:35;25.70;63.00
63047;DHT22;62025;39.238;9.126;2022-10-16T08:11:01;25.70;63.10
63047;DHT22;62025;39.238;9.126;2022-10-16T08:13:29;25.70;63.40
63047;DHT22;62025;39.238;9.126;2022-10-16T08:15:55;26.10;62.90
63047;DHT22;62025;39.238;9.126;2022-10-16T08:18:21;26.20;62.40
63047;DHT22;62025;39.238;9.126;2022-10-16T08:20:47;26.20;63.10
63047;DHT22;62025;39.238;9.126;2022-10-16T08:23:14;26.10;63.20
63047;DHT22;62025;39.238;9.126;2022-10-16T08:25:40;25.90;64.20
63047;DHT22;62025;39.238;9.126;2022-10-16T08:28:07;26.00;64.20
63047;DHT22;62025;39.238;9.126;2022-10-16T08:30:34;26.10;64.20
63047;DHT22;62025;39.238;9.126;2022-10-16T08:33:01;26.00;64.80
63047;DHT22;62025;39.238;9.126;2022-10-16T08:35:27;26.30;64.30
63047;DHT22;62025;39.238;9.126;2022-10-16T08:37:53;26.10;64.90
63047;DHT22;62025;39.238;9.126;2022-10-16T08:40:20;26.40;64.30
63047;DHT22;62025;39.238;9.126;2022-10-16T08:45:33;26.10;65.30
63047;DHT22;62025;39.238;9.126;2022-10-16T08:50:56;26.10;65.40
63047;DHT22;62025;39.238;9.126;2022-10-16T08:56:18;26.80;63.90
63047;DHT22;62025;39.238;9.126;2022-10-16T08:58:44;26.80;63.50
63047;DHT22;62025;39.238;9.126;2022-10-16T09:01:12;26.60;63.90
63047;DHT22;62025;39.238;9.126;2022-10-16T09:06:45;26.60;63.30
63047;DHT22;62025;39.238;9.126;2022-10-16T09:12:03;26.60;63.00
63047;DHT22;62025;39.238;9.126;2022-10-16T09:17:30;26.70;62.10
63047;DHT22;62025;39.238;9.126;2022-10-16T09:23:28;26.80;60.40
63047;DHT22;62025;39.238;9.126;2022-10-16T09:25:56;26.70;60.50
63047;DHT22;62025;39.238;9.126;2022-10-16T09:28:23;26.40;62.40
63047;DHT22;62025;39.238;9.126;2022-10-16T09:30:49;26.40;62.40
63047;DHT22;62025;39.238;9.126;2022-10-16T09:33:16;26.30;61.70
63047;DHT22;62025;39.238;9.126;2022-10-16T09:35:48;26.30;63.20
63047;DHT22;62025;39.238;9.126;2022-10-16T09:38:32;26.10;64.00
63047;DHT22;62025;39.238;9.126;2022-10-16T09:41:00;26.00;64.40
63047;DHT22;62025;39.238;9.126;2022-10-16T09:43:35;26.30;62.10
63047;DHT22;62025;39.238;9.126;2022-10-16T09:46:06;25.90;63.30
63047;DHT22;62025;39.238;9.126;2022-10-16T09:48:53;26.20;62.50
63047;DHT22;62025;39.238;9.126;2022-10-16T09:53:58;26.10;60.10
63047;DHT22;62025;39.238;9.126;2022-10-16T09:56:30;25.80;60.50
63047;DHT22;62025;39.238;9.126;2022-10-16T09:59:11;26.00;59.30
63047;DHT22;62025;39.238;9.126;2022-10-16T10:01:39;26.10;60.10
63047;DHT22;62025;39.238;9.126;2022-10-16T10:04:07;25.70;61.70
63047;DHT22;62025;39.238;9.126;2022-10-16T10:06:34;25.70;60.90
63047;DHT22;62025;39.238;9.126;2022-10-16T10:09:04;25.80;59.10
63047;DHT22;62025;39.238;9.126;2022-10-16T10:14:21;25.70;58.70
63047;DHT22;62025;39.238;9.126;2022-10-16T10:19:39;25.60;58.50
63047;DHT22;62025;39.238;9.126;2022-10-16T10:30:26;25.80;58.70
63047;DHT22;62025;39.238;9.126;2022-10-16T10:49:54;25.20;61.00
63047;DHT22;62025;39.238;9.126;2022-10-16T10:52:41;25.30;61.30
63047;DHT22;62025;39.238;9.126;2022-10-16T10:55:18;25.00;62.10
63047;DHT22;62025;39.238;9.126;2022-10-16T11:06:12;24.80;63.80
63047;DHT22;62025;39.238;9.126;2022-10-16T11:08:41;24.70;64.40
63047;DHT22;62025;39.238;9.126;2022-10-16T11:11:14;24.50;64.10
63047;DHT22;62025;39.238;9.126;2022-10-16T11:13:54;24.60;64.30
63047;DHT22;62025;39.238;9.126;2022-10-16T11:16:27;24.70;65.80
63047;DHT22;62025;39.238;9.126;2022-10-16T11:21:50;24.50;66.70
63047;DHT22;62025;39.238;9.126;2022-10-16T11:25:11;24.60;67.10
63047;DHT22;62025;39.238;9.126;2022-10-16T11:27:20;24.50;68.60
63047;DHT22;62025;39.238;9.126;2022-10-16T11:30:00;24.40;68.80
63047;DHT22;62025;39.238;9.126;2022-10-16T11:32:29;24.60;68.80
63047;DHT22;62025;39.238;9.126;2022-10-16T11:35:05;24.50;67.80
63047;DHT22;62025;39.238;9.126;2022-10-16T11:37:38;24.40;69.00
63047;DHT22;62025;39.238;9.126;2022-10-16T11:40:28;24.30;70.70
63047;DHT22;62025;39.238;9.126;2022-10-16T11:42:57;24.40;70.60
63047;DHT22;62025;39.238;9.126;2022-10-16T11:45:51;24.40;70.50
63047;DHT22;62025;39.238;9.126;2022-10-16T11:51:09;24.20;71.70
63047;DHT22;62025;39.238;9.126;2022-10-16T11:53:55;24.00;71.90
63047;DHT22;62025;39.238;9.126;2022-10-16T11:56:24;24.10;72.10
63047;DHT22;62025;39.238;9.126;2022-10-16T11:59:01;24.20;71.40
63047;DHT22;62025;39.238;9.126;2022-10-16T12:01:33;24.10;71.40
63047;DHT22;62025;39.238;9.126;2022-10-16T12:06:44;24.10;71.20
63047;DHT22;62025;39.238;9.126;2022-10-16T12:09:27;24.20;71.70
63047;DHT22;62025;39.238;9.126;2022-10-16T12:11:54;24.20;71.70
63047;DHT22;62025;39.238;9.126;2022-10-16T12:17:23;24.10;71.50
63047;DHT22;62025;39.238;9.126;2022-10-16T12:20:01;24.10;70.50
63047;DHT22;62025;39.238;9.126;2022-10-16T12:22:54;24.00;70.30
63047;DHT22;62025;39.238;9.126;2022-10-16T12:27:58;23.90;70.40
63047;DHT22;62025;39.238;9.126;2022-10-16T12:30:26;23.90;70.70
63047;DHT22;62025;39.238;9.126;2022-10-16T12:32:57;23.90;70.90
63047;DHT22;62025;39.238;9.126;2022-10-16T12:35:28;23.90;70.50
63047;DHT22;62025;39.238;9.126;2022-10-16T12:38:56;23.90;70.30
63047;DHT22;62025;39.238;9.126;2022-10-16T12:41:03;23.90;71.00
63047;DHT22;62025;39.238;9.126;2022-10-16T12:43:36;23.90;71.90
63047;DHT22;62025;39.238;9.126;2022-10-16T12:46:04;23.90;71.70
63047;DHT22;62025;39.238;9.126;2022-10-16T12:48:31;23.90;71.30
63047;DHT22;62025;39.238;9.126;2022-10-16T12:50:57;23.90;70.60
63047;DHT22;62025;39.238;9.126;2022-10-16T12:53:23;23.90;70.00
63047;DHT22;62025;39.238;9.126;2022-10-16T13:01:07;23.90;70.20
63047;DHT22;62025;39.238;9.126;2022-10-16T13:03:59;23.90;70.20
63047;DHT22;62025;39.238;9.126;2022-10-16T13:06:43;23.90;70.40
63047;DHT22;62025;39.238;9.126;2022-10-16T13:15:24;24.10;71.10
63047;DHT22;62025;39.238;9.126;2022-10-16T13:22:45;23.90;71.10
63047;DHT22;62025;39.238;9.126;2022-10-16T13:30:29;24.10;70.70
63047;DHT22;62025;39.238;9.126;2022-10-16T13:35:59;24.10;70.10
63047;DHT22;62025;39.238;9.126;2022-10-16T13:38:29;24.00;70.00
63047;DHT22;62025;39.238;9.126;2022-10-16T13:41:04;23.90;69.80
63047;DHT22;62025;39.238;9.126;2022-10-16T13:46:13;24.10;68.90
63047;DHT22;62025;39.238;9.126;2022-10-16T13:48:40;24.00;67.90
63047;DHT22;62025;39.238;9.126;2022-10-16T13:51:17;24.00;67.90
63047;DHT22;62025;39.238;9.126;2022-10-16T13:53:44;24.00;68.00
63047;DHT22;62025;39.238;9.126;2022-10-16T13:56:11;24.00;68.60
63047;DHT22;62025;39.238;9.126;2022-10-16T13:58:39;24.10;69.00
63047;DHT22;62025;39.238;9.126;2022-10-16T14:01:13;24.10;69.00
63047;DHT22;62025;39.238;9.126;2022-10-16T14:03:42;24.10;69.10
63047;DHT22;62025;39.238;9.126;2022-10-16T14:06:11;23.90;69.90
63047;DHT22;62025;39.238;9.126;2022-10-16T14:09:00;24.00;70.30
63047;DHT22;62025;39.238;9.126;2022-10-16T14:11:33;24.10;70.40
63047;DHT22;62025;39.238;9.126;2022-10-16T14:14:10;24.00;70.10
63047;DHT22;62025;39.238;9.126;2022-10-16T14:16:37;23.90;71.00
63047;DHT22;62025;39.238;9.126;2022-10-16T14:19:06;24.10;70.80
63047;DHT22;62025;39.238;9.126;2022-10-16T14:21:32;24.00;70.70
63047;DHT22;62025;39.238;9.126;2022-10-16T14:23:59;24.20;70.60
63047;DHT22;62025;39.238;9.126;2022-10-16T14:26:26;24.10;70.80
63047;DHT22;62025;39.238;9.126;2022-10-16T14:31:54;24.10;69.80
63047;DHT22;62025;39.238;9.126;2022-10-16T14:34:32;24.00;69.80
63047;DHT22;62025;39.238;9.126;2022-10-16T14:39:50;23.90;69.60
63047;DHT22;62025;39.238;9.126;2022-10-16T14:42:16;23.90;69.80
63047;DHT22;62025;39.238;9.126;2022-10-16T14:44:44;24.00;69.90
63047;DHT22;62025;39.238;9.126;2022-10-16T14:47:15;23.90;69.80
63047;DHT22;62025;39.238;9.126;2022-10-16T14:49:47;23.90;70.30
63047;DHT22;62025;39.238;9.126;2022-10-16T14:52:13;23.90;70.40
63047;DHT22;62025;39.238;9.126;2022-10-16T14:54:40;23.90;70.40
63047;DHT22;62025;39.238;9.126;2022-10-16T14:57:12;24.00;70.40
63047;DHT22;62025;39.238;9.126;2022-10-16T14:59:42;24.00;70.10
63047;DHT22;62025;39.238;9.126;2022-10-16T15:04:48;23.80;70.60
63047;DHT22;62025;39.238;9.126;2022-10-16T15:07:14;23.80;71.10
63047;DHT22;62025;39.238;9.126;2022-10-16T15:09:40;23.70;70.60
63047;DHT22;62025;39.238;9.126;2022-10-16T15:12:06;23.70;70.60
63047;DHT22;62025;39.238;9.126;2022-10-16T15:14:32;23.70;70.60
63047;DHT22;62025;39.238;9.126;2022-10-16T15:16:58;23.60;70.90
63047;DHT22;62025;39.238;9.126;2022-10-16T15:19:24;23.50;71.20
63047;DHT22;62025;39.238;9.126;2022-10-16T15:21:50;23.50;71.40
63047;DHT22;62025;39.238;9.126;2022-10-16T15:24:16;23.60;71.40
63047;DHT22;62025;39.238;9.126;2022-10-16T15:26:42;23.60;71.80
63047;DHT22;62025;39.238;9.126;2022-10-16T15:29:08;23.60;72.00
63047;DHT22;62025;39.238;9.126;2022-10-16T15:31:34;23.50;72.40
63047;DHT22;62025;39.238;9.126;2022-10-16T15:34:00;23.40;72.80
63047;DHT22;62025;39.238;9.126;2022-10-16T15:36:33;23.40;73.20
63047;DHT22;62025;39.238;9.126;2022-10-16T15:39:02;23.50;72.90
63047;DHT22;62025;39.238;9.126;2022-10-16T15:41:29;23.50;72.60
63047;DHT22;62025;39.238;9.126;2022-10-16T15:43:55;23.40;73.00
63047;DHT22;62025;39.238;9.126;2022-10-16T15:46:21;23.40;73.50
63047;DHT22;62025;39.238;9.126;2022-10-16T15:48:49;23.50;73.20
63047;DHT22;62025;39.238;9.126;2022-10-16T15:51:16;23.40;73.70
63047;DHT22;62025;39.238;9.126;2022-10-16T15:53:44;23.30;73.80
63047;DHT22;62025;39.238;9.126;2022-10-16T15:56:12;23.30;74.10
63047;DHT22;62025;39.238;9.126;2022-10-16T15:58:38;23.30;74.00
63047;DHT22;62025;39.238;9.126;2022-10-16T16:01:05;23.40;74.10
63047;DHT22;62025;39.238;9.126;2022-10-16T16:03:31;23.40;74.10
63047;DHT22;62025;39.238;9.126;2022-10-16T16:05:57;23.10;75.00
63047;DHT22;62025;39.238;9.126;2022-10-16T16:08:23;23.20;75.10
63047;DHT22;62025;39.238;9.126;2022-10-16T16:11:03;23.20;75.00
63047;DHT22;62025;39.238;9.126;2022-10-16T16:13:32;23.10;75.60
63047;DHT22;62025;39.238;9.126;2022-10-16T16:15:59;23.10;75.60
63047;DHT22;62025;39.238;9.126;2022-10-16T16:18:26;23.10;75.80
63047;DHT22;62025;39.238;9.126;2022-10-16T16:20:54;23.10;75.70
63047;DHT22;62025;39.238;9.126;2022-10-16T16:23:20;23.00;75.90
63047;DHT22;62025;39.238;9.126;2022-10-16T16:26:01;23.00;76.10
63047;DHT22;62025;39.238;9.126;2022-10-16T16:28:49;23.00;76.00
63047;DHT22;62025;39.238;9.126;2022-10-16T16:31:15;23.00;76.30
63047;DHT22;62025;39.238;9.126;2022-10-16T16:33:41;23.00;76.20
63047;DHT22;62025;39.238;9.126;2022-10-16T16:36:07;23.00;76.30
63047;DHT22;62025;39.238;9.126;2022-10-16T16:38:33;23.00;76.20
63047;DHT22;62025;39.238;9.126;2022-10-16T16:40:59;23.00;76.00
63047;DHT22;62025;39.238;9.126;2022-10-16T16:43:35;23.00;76.10
63047;DHT22;62025;39.238;9.126;2022-10-16T16:46:01;23.00;76.00
63047;DHT22;62025;39.238;9.126;2022-10-16T16:48:27;23.10;75.90
63047;DHT22;62025;39.238;9.126;2022-10-16T16:50:53;23.00;76.20
63047;DHT22;62025;39.238;9.126;2022-10-16T16:53:19;22.90;76.50
63047;DHT22;62025;39.238;9.126;2022-10-16T16:55:45;22.90;76.40
63047;DHT22;62025;39.238;9.126;2022-10-16T16:58:10;22.90;76.20
63047;DHT22;62025;39.238;9.126;2022-10-16T17:00:36;23.00;75.70
63047;DHT22;62025;39.238;9.126;2022-10-16T17:03:02;23.00;75.50
63047;DHT22;62025;39.238;9.126;2022-10-16T17:05:28;23.00;75.20
63047;DHT22;62025;39.238;9.126;2022-10-16T17:07:54;22.90;75.00
63047;DHT22;62025;39.238;9.126;2022-10-16T17:10:20;22.90;74.30
63047;DHT22;62025;39.238;9.126;2022-10-16T17:12:46;22.90;74.20
63047;DHT22;62025;39.238;9.126;2022-10-16T17:15:12;22.90;73.90
63047;DHT22;62025;39.238;9.126;2022-10-16T17:17:37;22.90;74.10
63047;DHT22;62025;39.238;9.126;2022-10-16T17:20:03;22.90;74.20
63047;DHT22;62025;39.238;9.126;2022-10-16T17:22:30;22.90;73.80
63047;DHT22;62025;39.238;9.126;2022-10-16T17:24:55;22.90;73.60
63047;DHT22;62025;39.238;9.126;2022-10-16T17:27:21;22.90;73.30
63047;DHT22;62025;39.238;9.126;2022-10-16T17:29:51;22.90;73.50
63047;DHT22;62025;39.238;9.126;2022-10-16T17:32:17;22.90;72.80
63047;DHT22;62025;39.238;9.126;2022-10-16T17:34:45;22.90;72.70
63047;DHT22;62025;39.238;9.126;2022-10-16T17:37:11;22.90;72.50
63047;DHT22;62025;39.238;9.126;2022-10-16T17:39:37;22.90;72.70
63047;DHT22;62025;39.238;9.126;2022-10-16T17:42:03;22.90;73.00
63047;DHT22;62025;39.238;9.126;2022-10-16T17:44:29;22.80;72.90
63047;DHT22;62025;39.238;9.126;2022-10-16T17:46:55;22.80;73.00
63047;DHT22;62025;39.238;9.126;2022-10-16T17:49:20;22.90;72.30
63047;DHT22;62025;39.238;9.126;2022-10-16T17:51:50;23.00;71.80